EFRO

Details ICAO EFRO (RVN)
Name Rovaniemi
Region Finland
Timezone Europe/Helsinki (UTC+3.0)
Plans Departing 137
Arriving 217
Stats Elevation 632 ft / 193 m (AMSL)
Location 66.564822° 25.830420°
Runways 1
Magnetic Variation 11.580° E
Sunrise 2018-05-27 23:31:43 UTC / 2018-05-28 02:31:43 Local
Sunset 2018-05-28 20:59:03 UTC / 2018-05-28 23:59:03 Local
Advertisement - Login to hide

Runways

ID Width Length Bearing (true) Bearing (mag) Surface Threshold Offset Overrun Length
03 197 ft / 60 m 9,819 ft / 2,993 m 37.14° 25.56° Asphalt 0 ft / 0 m 235 ft / 72 m
21 197 ft / 60 m 9,819 ft / 2,993 m 217.18° 205.60° Asphalt 0 ft / 0 m 218 ft / 66 m

Approach Navaids

Runway Type Ident Frequency Range Bearing (true) Bearing (mag) Slope Elevation
21 Localiser RO 111.70 MHz 18 nm / 33 km 217.13° 205.56° - 632 ft / 193 m (AMSL)
21 Glidescope RO 111.70 MHz 10 nm / 19 km 217.16° 205.58° 3.00° 632 ft / 193 m (AMSL)
21 DME RO 111.70 MHz 18 nm / 33 km - - - 673 ft / 205 m (AMSL)

Map

Weather


0- 5 10 15 20 25 30 35+ Temperature / ° C

Clouds and Precipitation
Forecast for 2018-05-28 00:00 UTC. Updated 4 hours ago

Ground ~20,000 ft ~40,000 ft Winds

METAR

EFRO 280250Z AUTO 22011KT CAVOK 08/02 Q1028

TAF

TAF EFRO 280222Z 2803/2903 24009KT CAVOK

Frequencies

Ground 118.52 MHz GND
Tower 118.70 MHz TWR
Approach 129.90 MHz APP
Tower 119.70 MHz TWR
Approach 125.80 MHz APP
Warning: Do not use this data for real-world aviation or navigation. No guarantee of current accuracy is given.